ジュネーヴ の空港の天気 - METARとTAF

ジュネーヴ・コアントラン国際空港 ( LSGG / GVA ) - スイス ジュネーヴ
飛行場実況気象(Metar)
観測時間04/27 18:50 CEST (04/27 16:50 UTC)
風向・風速東 2m/s
視程10km以上
天気現象弱い雨
少しの雲 雲底高度 610m
全天の8割程度の雲 雲底高度 1370m
気温6℃
湿度76%
気圧1013hPa
METARLSGG 271650Z 09004KT 060V140 9999 -RA FEW020 BKN045 06/02 Q1013 NOSIG
過去の天気等 Google飛行場航空写真 Wunderground天気予報

過去48時間のMETAR

飛行場予報(TAF)
発表時間: 4/27 16:25 CEST (4/27 14:25 UTC)
予報対象時間: 27日17時 CEST ~ 28日23時 CEST
風向・風速北東 4m/s
視程10km以上
天気現象弱い雨
少しの雲 雲底高度 300m
全天の4割程度の雲 雲底高度 610m
全天の8割程度の雲 雲底高度 1,220m
TAF LSGG 271425Z 2715/2821 05007KT 9999 -RA FEW010 SCT020 BKN040 TX06/2715Z TN03/2805Z TX10/2815Z